sensor_id;sensor_type;location;lat;lon;timestamp;P1;durP1;ratioP1;P2;durP2;ratioP2
29500;SDS011;16450;50.288;10.966;2022-08-19T00:01:59;16.05;;;12.20;;
29500;SDS011;16450;50.288;10.966;2022-08-19T00:05:00;15.77;;;11.93;;
29500;SDS011;16450;50.288;10.966;2022-08-19T00:08:01;15.48;;;11.43;;
29500;SDS011;16450;50.288;10.966;2022-08-19T00:11:03;14.45;;;11.65;;
29500;SDS011;16450;50.288;10.966;2022-08-19T00:14:07;13.18;;;10.90;;
29500;SDS011;16450;50.288;10.966;2022-08-19T00:17:09;15.18;;;11.52;;
29500;SDS011;16450;50.288;10.966;2022-08-19T00:20:13;16.30;;;13.07;;
29500;SDS011;16450;50.288;10.966;2022-08-19T00:23:16;16.10;;;12.25;;
29500;SDS011;16450;50.288;10.966;2022-08-19T00:26:17;16.27;;;12.68;;
29500;SDS011;16450;50.288;10.966;2022-08-19T00:29:19;14.98;;;12.15;;
29500;SDS011;16450;50.288;10.966;2022-08-19T00:32:20;19.63;;;12.95;;
29500;SDS011;16450;50.288;10.966;2022-08-19T00:35:21;19.52;;;13.63;;
29500;SDS011;16450;50.288;10.966;2022-08-19T00:38:22;17.27;;;12.88;;
29500;SDS011;16450;50.288;10.966;2022-08-19T00:41:23;18.17;;;13.00;;
29500;SDS011;16450;50.288;10.966;2022-08-19T00:44:26;16.27;;;13.85;;
29500;SDS011;16450;50.288;10.966;2022-08-19T00:47:28;18.50;;;14.30;;
29500;SDS011;16450;50.288;10.966;2022-08-19T00:50:29;20.25;;;15.02;;
29500;SDS011;16450;50.288;10.966;2022-08-19T00:53:30;16.88;;;13.70;;
29500;SDS011;16450;50.288;10.966;2022-08-19T00:56:34;16.20;;;13.40;;
29500;SDS011;16450;50.288;10.966;2022-08-19T00:59:36;18.67;;;14.40;;
29500;SDS011;16450;50.288;10.966;2022-08-19T01:02:38;18.98;;;14.65;;
29500;SDS011;16450;50.288;10.966;2022-08-19T01:05:41;16.48;;;13.18;;
29500;SDS011;16450;50.288;10.966;2022-08-19T01:08:43;16.90;;;13.77;;
29500;SDS011;16450;50.288;10.966;2022-08-19T01:11:44;19.27;;;14.93;;
29500;SDS011;16450;50.288;10.966;2022-08-19T01:14:45;20.55;;;14.75;;
29500;SDS011;16450;50.288;10.966;2022-08-19T01:17:46;19.20;;;14.87;;
29500;SDS011;16450;50.288;10.966;2022-08-19T01:20:48;18.88;;;15.32;;
29500;SDS011;16450;50.288;10.966;2022-08-19T01:23:50;19.20;;;14.67;;
29500;SDS011;16450;50.288;10.966;2022-08-19T01:26:51;18.33;;;14.33;;
29500;SDS011;16450;50.288;10.966;2022-08-19T01:29:52;20.27;;;15.30;;
29500;SDS011;16450;50.288;10.966;2022-08-19T01:32:53;18.02;;;14.13;;
29500;SDS011;16450;50.288;10.966;2022-08-19T01:36:02;18.98;;;14.65;;
29500;SDS011;16450;50.288;10.966;2022-08-19T01:39:05;20.10;;;14.88;;
29500;SDS011;16450;50.288;10.966;2022-08-19T01:42:08;19.15;;;15.07;;
29500;SDS011;16450;50.288;10.966;2022-08-19T01:45:11;17.83;;;14.23;;
29500;SDS011;16450;50.288;10.966;2022-08-19T01:48:12;18.83;;;14.30;;
29500;SDS011;16450;50.288;10.966;2022-08-19T01:51:13;19.10;;;14.27;;
29500;SDS011;16450;50.288;10.966;2022-08-19T01:54:16;19.30;;;14.73;;
29500;SDS011;16450;50.288;10.966;2022-08-19T01:57:17;18.10;;;14.30;;
29500;SDS011;16450;50.288;10.966;2022-08-19T02:00:19;18.73;;;14.77;;
29500;SDS011;16450;50.288;10.966;2022-08-19T02:03:22;18.50;;;14.63;;
29500;SDS011;16450;50.288;10.966;2022-08-19T02:06:23;18.13;;;14.38;;
29500;SDS011;16450;50.288;10.966;2022-08-19T02:09:24;18.33;;;14.47;;
29500;SDS011;16450;50.288;10.966;2022-08-19T02:12:24;18.40;;;14.40;;
29500;SDS011;16450;50.288;10.966;2022-08-19T02:15:25;20.95;;;15.00;;
29500;SDS011;16450;50.288;10.966;2022-08-19T02:18:26;18.08;;;13.57;;
29500;SDS011;16450;50.288;10.966;2022-08-19T02:21:27;17.65;;;14.07;;
29500;SDS011;16450;50.288;10.966;2022-08-19T02:24:28;17.40;;;13.55;;
29500;SDS011;16450;50.288;10.966;2022-08-19T02:27:29;18.70;;;14.40;;
29500;SDS011;16450;50.288;10.966;2022-08-19T02:30:29;20.93;;;15.10;;
29500;SDS011;16450;50.288;10.966;2022-08-19T02:33:30;20.10;;;14.57;;
29500;SDS011;16450;50.288;10.966;2022-08-19T02:36:31;18.43;;;14.43;;
29500;SDS011;16450;50.288;10.966;2022-08-19T02:39:31;20.03;;;14.20;;
29500;SDS011;16450;50.288;10.966;2022-08-19T02:42:32;18.40;;;14.57;;
29500;SDS011;16450;50.288;10.966;2022-08-19T02:45:34;19.20;;;14.17;;
29500;SDS011;16450;50.288;10.966;2022-08-19T02:48:35;17.57;;;13.03;;
29500;SDS011;16450;50.288;10.966;2022-08-19T02:51:37;16.63;;;13.07;;
29500;SDS011;16450;50.288;10.966;2022-08-19T02:54:42;18.40;;;13.67;;
29500;SDS011;16450;50.288;10.966;2022-08-19T02:57:43;17.63;;;13.43;;
29500;SDS011;16450;50.288;10.966;2022-08-19T03:00:48;17.97;;;13.10;;
29500;SDS011;16450;50.288;10.966;2022-08-19T03:03:51;16.77;;;13.23;;
29500;SDS011;16450;50.288;10.966;2022-08-19T03:06:52;15.95;;;12.95;;
29500;SDS011;16450;50.288;10.966;2022-08-19T03:09:52;16.17;;;12.93;;
29500;SDS011;16450;50.288;10.966;2022-08-19T03:12:53;16.57;;;12.70;;
29500;SDS011;16450;50.288;10.966;2022-08-19T03:15:54;17.23;;;13.73;;
29500;SDS011;16450;50.288;10.966;2022-08-19T03:18:55;18.13;;;12.33;;
29500;SDS011;16450;50.288;10.966;2022-08-19T03:21:59;17.67;;;12.70;;
29500;SDS011;16450;50.288;10.966;2022-08-19T03:25:00;16.73;;;12.43;;
29500;SDS011;16450;50.288;10.966;2022-08-19T03:28:03;16.43;;;13.37;;
29500;SDS011;16450;50.288;10.966;2022-08-19T03:31:10;17.67;;;12.63;;
29500;SDS011;16450;50.288;10.966;2022-08-19T03:34:13;16.97;;;13.70;;
29500;SDS011;16450;50.288;10.966;2022-08-19T03:37:17;16.40;;;13.53;;
29500;SDS011;16450;50.288;10.966;2022-08-19T03:40:18;17.60;;;13.73;;
29500;SDS011;16450;50.288;10.966;2022-08-19T03:43:19;19.83;;;14.53;;
29500;SDS011;16450;50.288;10.966;2022-08-19T03:46:20;18.15;;;14.07;;
29500;SDS011;16450;50.288;10.966;2022-08-19T03:49:24;22.17;;;13.95;;
29500;SDS011;16450;50.288;10.966;2022-08-19T03:52:27;17.80;;;13.85;;
29500;SDS011;16450;50.288;10.966;2022-08-19T03:55:27;18.57;;;14.17;;
29500;SDS011;16450;50.288;10.966;2022-08-19T03:58:28;17.52;;;13.50;;
29500;SDS011;16450;50.288;10.966;2022-08-19T04:01:29;18.20;;;14.38;;
29500;SDS011;16450;50.288;10.966;2022-08-19T04:04:30;19.03;;;14.50;;
29500;SDS011;16450;50.288;10.966;2022-08-19T04:07:31;18.53;;;13.00;;
29500;SDS011;16450;50.288;10.966;2022-08-19T04:10:35;16.53;;;13.83;;
29500;SDS011;16450;50.288;10.966;2022-08-19T04:13:37;17.57;;;14.47;;
29500;SDS011;16450;50.288;10.966;2022-08-19T04:16:38;17.87;;;13.67;;
29500;SDS011;16450;50.288;10.966;2022-08-19T04:19:39;16.70;;;13.23;;
29500;SDS011;16450;50.288;10.966;2022-08-19T04:22:41;18.97;;;13.93;;
29500;SDS011;16450;50.288;10.966;2022-08-19T04:25:42;18.20;;;14.30;;
29500;SDS011;16450;50.288;10.966;2022-08-19T04:28:45;19.23;;;13.60;;
29500;SDS011;16450;50.288;10.966;2022-08-19T04:31:46;17.90;;;14.90;;
29500;SDS011;16450;50.288;10.966;2022-08-19T04:34:46;18.77;;;14.73;;
29500;SDS011;16450;50.288;10.966;2022-08-19T04:37:47;17.43;;;13.77;;
29500;SDS011;16450;50.288;10.966;2022-08-19T04:40:49;17.60;;;14.30;;
29500;SDS011;16450;50.288;10.966;2022-08-19T04:44:22;19.60;;;13.93;;
29500;SDS011;16450;50.288;10.966;2022-08-19T04:47:24;19.05;;;14.57;;
29500;SDS011;16450;50.288;10.966;2022-08-19T04:50:25;18.08;;;14.48;;
29500;SDS011;16450;50.288;10.966;2022-08-19T04:53:27;19.40;;;14.05;;
29500;SDS011;16450;50.288;10.966;2022-08-19T04:56:30;17.93;;;14.20;;
29500;SDS011;16450;50.288;10.966;2022-08-19T04:59:31;19.52;;;13.50;;
29500;SDS011;16450;50.288;10.966;2022-08-19T05:02:33;19.60;;;14.03;;
29500;SDS011;16450;50.288;10.966;2022-08-19T05:05:37;19.70;;;14.77;;
29500;SDS011;16450;50.288;10.966;2022-08-19T05:08:40;17.83;;;13.60;;
29500;SDS011;16450;50.288;10.966;2022-08-19T05:11:43;23.90;;;13.80;;
29500;SDS011;16450;50.288;10.966;2022-08-19T05:14:45;22.13;;;14.27;;
29500;SDS011;16450;50.288;10.966;2022-08-19T05:17:47;17.92;;;14.13;;
29500;SDS011;16450;50.288;10.966;2022-08-19T05:21:08;18.67;;;13.25;;
29500;SDS011;16450;50.288;10.966;2022-08-19T05:24:31;17.57;;;13.40;;
29500;SDS011;16450;50.288;10.966;2022-08-19T05:27:34;20.05;;;14.43;;
29500;SDS011;16450;50.288;10.966;2022-08-19T05:30:34;17.67;;;14.05;;
29500;SDS011;16450;50.288;10.966;2022-08-19T05:33:35;18.33;;;13.00;;
29500;SDS011;16450;50.288;10.966;2022-08-19T05:36:37;18.63;;;14.00;;
29500;SDS011;16450;50.288;10.966;2022-08-19T05:39:40;18.05;;;14.05;;
29500;SDS011;16450;50.288;10.966;2022-08-19T05:42:40;17.30;;;13.07;;
29500;SDS011;16450;50.288;10.966;2022-08-19T05:45:42;18.83;;;13.73;;
29500;SDS011;16450;50.288;10.966;2022-08-19T05:48:43;16.10;;;13.35;;
29500;SDS011;16450;50.288;10.966;2022-08-19T05:51:44;16.42;;;13.32;;
29500;SDS011;16450;50.288;10.966;2022-08-19T05:54:45;17.45;;;12.65;;
29500;SDS011;16450;50.288;10.966;2022-08-19T05:57:47;17.77;;;13.15;;
29500;SDS011;16450;50.288;10.966;2022-08-19T06:00:48;17.92;;;13.52;;
29500;SDS011;16450;50.288;10.966;2022-08-19T06:03:49;16.83;;;13.80;;
29500;SDS011;16450;50.288;10.966;2022-08-19T06:06:51;16.40;;;12.75;;
29500;SDS011;16450;50.288;10.966;2022-08-19T06:09:53;15.52;;;12.00;;
29500;SDS011;16450;50.288;10.966;2022-08-19T06:12:55;16.42;;;12.82;;
29500;SDS011;16450;50.288;10.966;2022-08-19T06:15:56;15.52;;;12.35;;
29500;SDS011;16450;50.288;10.966;2022-08-19T06:18:58;16.25;;;12.38;;
29500;SDS011;16450;50.288;10.966;2022-08-19T06:22:00;18.23;;;12.73;;
29500;SDS011;16450;50.288;10.966;2022-08-19T06:25:01;14.82;;;12.13;;
29500;SDS011;16450;50.288;10.966;2022-08-19T06:28:04;17.40;;;12.73;;
29500;SDS011;16450;50.288;10.966;2022-08-19T06:31:08;17.40;;;12.98;;
29500;SDS011;16450;50.288;10.966;2022-08-19T06:34:09;21.38;;;13.10;;
29500;SDS011;16450;50.288;10.966;2022-08-19T06:37:10;16.33;;;12.27;;
29500;SDS011;16450;50.288;10.966;2022-08-19T06:40:11;15.23;;;11.93;;
29500;SDS011;16450;50.288;10.966;2022-08-19T06:43:12;16.35;;;12.68;;
29500;SDS011;16450;50.288;10.966;2022-08-19T06:46:16;18.30;;;12.30;;
29500;SDS011;16450;50.288;10.966;2022-08-19T06:49:21;14.85;;;12.07;;
29500;SDS011;16450;50.288;10.966;2022-08-19T06:52:23;16.80;;;12.77;;
29500;SDS011;16450;50.288;10.966;2022-08-19T06:55:23;15.68;;;12.38;;
29500;SDS011;16450;50.288;10.966;2022-08-19T06:58:24;17.10;;;12.50;;
29500;SDS011;16450;50.288;10.966;2022-08-19T07:01:25;15.85;;;12.30;;
29500;SDS011;16450;50.288;10.966;2022-08-19T07:04:28;17.40;;;12.20;;
29500;SDS011;16450;50.288;10.966;2022-08-19T07:07:32;15.30;;;11.65;;
29500;SDS011;16450;50.288;10.966;2022-08-19T07:10:33;18.23;;;12.23;;
29500;SDS011;16450;50.288;10.966;2022-08-19T07:13:35;16.77;;;12.32;;
29500;SDS011;16450;50.288;10.966;2022-08-19T07:16:38;13.85;;;11.18;;
29500;SDS011;16450;50.288;10.966;2022-08-19T07:19:38;15.85;;;11.98;;
29500;SDS011;16450;50.288;10.966;2022-08-19T07:22:39;15.65;;;11.95;;
29500;SDS011;16450;50.288;10.966;2022-08-19T07:25:40;16.17;;;12.02;;
29500;SDS011;16450;50.288;10.966;2022-08-19T07:28:41;17.00;;;11.88;;
29500;SDS011;16450;50.288;10.966;2022-08-19T07:31:43;14.98;;;12.05;;
29500;SDS011;16450;50.288;10.966;2022-08-19T07:34:44;16.95;;;12.23;;
29500;SDS011;16450;50.288;10.966;2022-08-19T07:37:45;17.58;;;12.02;;
29500;SDS011;16450;50.288;10.966;2022-08-19T07:40:46;14.52;;;11.68;;
29500;SDS011;16450;50.288;10.966;2022-08-19T07:43:47;17.48;;;11.73;;
29500;SDS011;16450;50.288;10.966;2022-08-19T07:46:50;16.65;;;12.18;;
29500;SDS011;16450;50.288;10.966;2022-08-19T07:49:53;16.48;;;12.05;;
29500;SDS011;16450;50.288;10.966;2022-08-19T07:52:54;14.82;;;11.75;;
29500;SDS011;16450;50.288;10.966;2022-08-19T07:55:55;14.18;;;11.23;;
29500;SDS011;16450;50.288;10.966;2022-08-19T07:59:00;13.82;;;11.48;;
29500;SDS011;16450;50.288;10.966;2022-08-19T08:02:00;14.25;;;11.93;;
29500;SDS011;16450;50.288;10.966;2022-08-19T08:05:02;16.02;;;11.70;;
29500;SDS011;16450;50.288;10.966;2022-08-19T08:08:21;14.88;;;11.93;;
29500;SDS011;16450;50.288;10.966;2022-08-19T08:11:22;17.67;;;11.80;;
29500;SDS011;16450;50.288;10.966;2022-08-19T08:14:24;15.23;;;11.57;;
29500;SDS011;16450;50.288;10.966;2022-08-19T08:17:28;14.90;;;10.98;;
29500;SDS011;16450;50.288;10.966;2022-08-19T08:20:29;15.60;;;12.07;;
29500;SDS011;16450;50.288;10.966;2022-08-19T08:23:30;16.40;;;12.77;;
29500;SDS011;16450;50.288;10.966;2022-08-19T08:26:31;17.83;;;11.13;;
29500;SDS011;16450;50.288;10.966;2022-08-19T08:29:32;14.05;;;11.07;;
29500;SDS011;16450;50.288;10.966;2022-08-19T08:32:33;14.35;;;12.05;;
29500;SDS011;16450;50.288;10.966;2022-08-19T08:35:34;14.20;;;11.65;;
29500;SDS011;16450;50.288;10.966;2022-08-19T08:38:35;13.40;;;11.68;;
29500;SDS011;16450;50.288;10.966;2022-08-19T08:41:41;17.17;;;13.52;;
29500;SDS011;16450;50.288;10.966;2022-08-19T08:44:59;19.17;;;13.95;;
29500;SDS011;16450;50.288;10.966;2022-08-19T08:48:04;16.25;;;12.75;;
29500;SDS011;16450;50.288;10.966;2022-08-19T08:51:25;18.90;;;13.35;;
29500;SDS011;16450;50.288;10.966;2022-08-19T08:54:40;16.67;;;13.63;;
29500;SDS011;16450;50.288;10.966;2022-08-19T09:00:51;14.57;;;13.02;;
29500;SDS011;16450;50.288;10.966;2022-08-19T09:03:51;21.17;;;14.85;;
29500;SDS011;16450;50.288;10.966;2022-08-19T09:10:32;18.50;;;13.70;;
29500;SDS011;16450;50.288;10.966;2022-08-19T09:13:38;16.42;;;12.98;;
29500;SDS011;16450;50.288;10.966;2022-08-19T09:16:49;17.45;;;12.82;;
29500;SDS011;16450;50.288;10.966;2022-08-19T09:19:55;16.30;;;12.45;;
29500;SDS011;16450;50.288;10.966;2022-08-19T09:23:02;15.82;;;11.90;;
29500;SDS011;16450;50.288;10.966;2022-08-19T09:26:07;14.65;;;11.15;;
29500;SDS011;16450;50.288;10.966;2022-08-19T09:29:09;11.73;;;9.60;;
29500;SDS011;16450;50.288;10.966;2022-08-19T09:32:10;13.00;;;10.48;;
29500;SDS011;16450;50.288;10.966;2022-08-19T09:35:12;13.75;;;10.30;;
29500;SDS011;16450;50.288;10.966;2022-08-19T09:38:13;13.63;;;10.80;;
29500;SDS011;16450;50.288;10.966;2022-08-19T09:41:15;13.40;;;10.70;;
29500;SDS011;16450;50.288;10.966;2022-08-19T09:44:17;12.00;;;9.00;;
29500;SDS011;16450;50.288;10.966;2022-08-19T09:47:20;10.43;;;8.27;;
29500;SDS011;16450;50.288;10.966;2022-08-19T09:50:21;10.02;;;6.90;;
29500;SDS011;16450;50.288;10.966;2022-08-19T09:53:22;8.90;;;6.88;;
29500;SDS011;16450;50.288;10.966;2022-08-19T09:56:23;8.48;;;6.70;;
29500;SDS011;16450;50.288;10.966;2022-08-19T09:59:23;8.00;;;6.43;;
29500;SDS011;16450;50.288;10.966;2022-08-19T10:02:24;6.70;;;6.00;;
29500;SDS011;16450;50.288;10.966;2022-08-19T10:05:25;8.35;;;6.03;;
29500;SDS011;16450;50.288;10.966;2022-08-19T10:08:45;6.60;;;5.75;;
29500;SDS011;16450;50.288;10.966;2022-08-19T10:11:46;8.10;;;6.25;;
29500;SDS011;16450;50.288;10.966;2022-08-19T10:14:48;6.55;;;5.75;;
29500;SDS011;16450;50.288;10.966;2022-08-19T10:17:51;6.82;;;6.18;;
29500;SDS011;16450;50.288;10.966;2022-08-19T10:20:51;7.28;;;6.57;;
29500;SDS011;16450;50.288;10.966;2022-08-19T10:24:02;9.68;;;6.68;;
29500;SDS011;16450;50.288;10.966;2022-08-19T10:27:05;8.80;;;6.38;;
29500;SDS011;16450;50.288;10.966;2022-08-19T10:30:06;6.72;;;6.07;;
29500;SDS011;16450;50.288;10.966;2022-08-19T10:33:07;8.50;;;6.35;;
29500;SDS011;16450;50.288;10.966;2022-08-19T10:36:10;6.72;;;6.03;;
29500;SDS011;16450;50.288;10.966;2022-08-19T10:39:15;7.85;;;6.32;;
29500;SDS011;16450;50.288;10.966;2022-08-19T10:42:15;7.47;;;5.88;;
29500;SDS011;16450;50.288;10.966;2022-08-19T10:45:16;5.97;;;5.35;;
29500;SDS011;16450;50.288;10.966;2022-08-19T10:48:17;5.70;;;5.07;;
29500;SDS011;16450;50.288;10.966;2022-08-19T10:51:18;6.45;;;5.00;;
29500;SDS011;16450;50.288;10.966;2022-08-19T10:54:38;5.40;;;4.90;;
29500;SDS011;16450;50.288;10.966;2022-08-19T10:57:57;6.75;;;5.28;;
29500;SDS011;16450;50.288;10.966;2022-08-19T11:00:58;6.43;;;5.15;;
29500;SDS011;16450;50.288;10.966;2022-08-19T11:03:59;7.13;;;5.35;;
29500;SDS011;16450;50.288;10.966;2022-08-19T11:07:01;5.55;;;4.80;;
29500;SDS011;16450;50.288;10.966;2022-08-19T11:10:03;5.93;;;4.82;;
29500;SDS011;16450;50.288;10.966;2022-08-19T11:13:05;7.18;;;5.00;;
29500;SDS011;16450;50.288;10.966;2022-08-19T11:16:07;6.15;;;4.93;;
29500;SDS011;16450;50.288;10.966;2022-08-19T11:19:10;5.75;;;4.82;;
29500;SDS011;16450;50.288;10.966;2022-08-19T11:22:12;7.68;;;4.93;;
29500;SDS011;16450;50.288;10.966;2022-08-19T11:25:13;6.15;;;4.95;;
29500;SDS011;16450;50.288;10.966;2022-08-19T11:28:14;4.47;;;4.07;;
29500;SDS011;16450;50.288;10.966;2022-08-19T11:31:15;5.25;;;4.10;;
29500;SDS011;16450;50.288;10.966;2022-08-19T11:34:20;5.20;;;4.03;;
29500;SDS011;16450;50.288;10.966;2022-08-19T11:37:22;5.05;;;3.92;;
29500;SDS011;16450;50.288;10.966;2022-08-19T11:40:23;4.55;;;3.17;;
29500;SDS011;16450;50.288;10.966;2022-08-19T11:43:23;3.40;;;3.10;;
29500;SDS011;16450;50.288;10.966;2022-08-19T11:46:26;3.13;;;2.33;;
29500;SDS011;16450;50.288;10.966;2022-08-19T11:49:30;3.83;;;2.13;;
29500;SDS011;16450;50.288;10.966;2022-08-19T11:52:31;2.42;;;2.00;;
29500;SDS011;16450;50.288;10.966;2022-08-19T11:55:31;2.40;;;2.20;;
29500;SDS011;16450;50.288;10.966;2022-08-19T11:58:32;2.17;;;1.98;;
29500;SDS011;16450;50.288;10.966;2022-08-19T12:01:34;2.15;;;1.88;;
29500;SDS011;16450;50.288;10.966;2022-08-19T12:04:34;2.42;;;1.90;;
29500;SDS011;16450;50.288;10.966;2022-08-19T12:07:35;2.40;;;2.20;;
29500;SDS011;16450;50.288;10.966;2022-08-19T12:10:36;2.63;;;2.10;;
29500;SDS011;16450;50.288;10.966;2022-08-19T12:13:37;2.58;;;2.20;;
29500;SDS011;16450;50.288;10.966;2022-08-19T12:16:38;2.28;;;2.08;;
29500;SDS011;16450;50.288;10.966;2022-08-19T12:19:40;3.13;;;1.88;;
29500;SDS011;16450;50.288;10.966;2022-08-19T12:22:41;2.25;;;1.90;;
29500;SDS011;16450;50.288;10.966;2022-08-19T12:25:45;2.53;;;2.08;;
29500;SDS011;16450;50.288;10.966;2022-08-19T12:28:50;2.55;;;2.22;;
29500;SDS011;16450;50.288;10.966;2022-08-19T12:31:50;3.67;;;2.20;;
29500;SDS011;16450;50.288;10.966;2022-08-19T12:34:51;2.20;;;2.00;;
29500;SDS011;16450;50.288;10.966;2022-08-19T12:37:52;3.05;;;2.08;;
29500;SDS011;16450;50.288;10.966;2022-08-19T12:40:53;3.40;;;2.35;;
29500;SDS011;16450;50.288;10.966;2022-08-19T12:43:53;3.15;;;2.35;;
29500;SDS011;16450;50.288;10.966;2022-08-19T12:46:54;3.65;;;2.00;;
29500;SDS011;16450;50.288;10.966;2022-08-19T12:49:54;3.28;;;1.77;;
29500;SDS011;16450;50.288;10.966;2022-08-19T12:52:56;3.10;;;2.15;;
29500;SDS011;16450;50.288;10.966;2022-08-19T12:55:58;2.55;;;2.20;;
29500;SDS011;16450;50.288;10.966;2022-08-19T12:59:02;2.55;;;2.13;;
29500;SDS011;16450;50.288;10.966;2022-08-19T13:02:05;2.28;;;2.08;;
29500;SDS011;16450;50.288;10.966;2022-08-19T13:05:08;3.33;;;2.40;;
29500;SDS011;16450;50.288;10.966;2022-08-19T13:08:11;3.92;;;2.15;;
29500;SDS011;16450;50.288;10.966;2022-08-19T13:11:12;4.95;;;2.25;;
29500;SDS011;16450;50.288;10.966;2022-08-19T13:14:17;3.60;;;2.28;;
29500;SDS011;16450;50.288;10.966;2022-08-19T13:17:19;3.08;;;2.15;;
29500;SDS011;16450;50.288;10.966;2022-08-19T13:20:21;3.80;;;2.70;;
29500;SDS011;16450;50.288;10.966;2022-08-19T13:23:22;3.53;;;2.15;;
29500;SDS011;16450;50.288;10.966;2022-08-19T13:26:23;3.47;;;2.00;;
29500;SDS011;16450;50.288;10.966;2022-08-19T13:29:23;2.08;;;1.92;;
29500;SDS011;16450;50.288;10.966;2022-08-19T13:32:43;2.88;;;2.03;;
29500;SDS011;16450;50.288;10.966;2022-08-19T13:36:02;2.15;;;1.90;;
29500;SDS011;16450;50.288;10.966;2022-08-19T13:39:07;2.63;;;2.13;;
29500;SDS011;16450;50.288;10.966;2022-08-19T13:42:09;1.70;;;1.58;;
29500;SDS011;16450;50.288;10.966;2022-08-19T13:45:10;2.35;;;2.00;;
29500;SDS011;16450;50.288;10.966;2022-08-19T13:48:12;2.20;;;2.00;;
29500;SDS011;16450;50.288;10.966;2022-08-19T13:51:13;2.22;;;1.90;;
29500;SDS011;16450;50.288;10.966;2022-08-19T13:54:16;2.40;;;2.00;;
29500;SDS011;16450;50.288;10.966;2022-08-19T13:57:16;2.53;;;1.90;;
29500;SDS011;16450;50.288;10.966;2022-08-19T14:01:11;2.78;;;2.08;;
29500;SDS011;16450;50.288;10.966;2022-08-19T14:04:12;1.75;;;1.65;;
29500;SDS011;16450;50.288;10.966;2022-08-19T14:07:13;2.38;;;2.08;;
29500;SDS011;16450;50.288;10.966;2022-08-19T14:10:14;2.15;;;1.92;;
29500;SDS011;16450;50.288;10.966;2022-08-19T14:13:18;2.38;;;2.17;;
29500;SDS011;16450;50.288;10.966;2022-08-19T14:16:20;2.80;;;2.13;;
29500;SDS011;16450;50.288;10.966;2022-08-19T14:19:21;2.67;;;1.88;;
29500;SDS011;16450;50.288;10.966;2022-08-19T14:22:22;6.22;;;2.15;;
29500;SDS011;16450;50.288;10.966;2022-08-19T14:25:24;2.83;;;2.40;;
29500;SDS011;16450;50.288;10.966;2022-08-19T14:28:27;2.47;;;2.00;;
29500;SDS011;16450;50.288;10.966;2022-08-19T14:31:28;1.95;;;1.80;;
29500;SDS011;16450;50.288;10.966;2022-08-19T14:34:29;2.20;;;1.77;;
29500;SDS011;16450;50.288;10.966;2022-08-19T14:37:32;4.47;;;2.42;;
29500;SDS011;16450;50.288;10.966;2022-08-19T14:40:33;5.20;;;2.42;;
29500;SDS011;16450;50.288;10.966;2022-08-19T14:43:34;2.58;;;1.92;;
29500;SDS011;16450;50.288;10.966;2022-08-19T14:46:35;2.95;;;1.92;;
29500;SDS011;16450;50.288;10.966;2022-08-19T14:49:35;2.38;;;1.98;;
29500;SDS011;16450;50.288;10.966;2022-08-19T14:52:36;3.03;;;1.70;;
29500;SDS011;16450;50.288;10.966;2022-08-19T14:55:41;2.50;;;2.00;;
29500;SDS011;16450;50.288;10.966;2022-08-19T14:58:43;2.10;;;1.90;;
29500;SDS011;16450;50.288;10.966;2022-08-19T15:01:44;3.00;;;2.03;;
29500;SDS011;16450;50.288;10.966;2022-08-19T15:04:44;1.92;;;1.70;;
29500;SDS011;16450;50.288;10.966;2022-08-19T15:07:45;1.85;;;1.75;;
29500;SDS011;16450;50.288;10.966;2022-08-19T15:10:45;2.60;;;1.90;;
29500;SDS011;16450;50.288;10.966;2022-08-19T15:13:47;2.35;;;1.77;;
29500;SDS011;16450;50.288;10.966;2022-08-19T15:16:49;1.83;;;1.70;;
29500;SDS011;16450;50.288;10.966;2022-08-19T15:19:50;2.22;;;1.92;;
29500;SDS011;16450;50.288;10.966;2022-08-19T15:22:51;3.53;;;1.80;;
29500;SDS011;16450;50.288;10.966;2022-08-19T15:25:51;2.50;;;2.30;;
29500;SDS011;16450;50.288;10.966;2022-08-19T15:28:54;3.80;;;1.95;;
29500;SDS011;16450;50.288;10.966;2022-08-19T15:31:56;3.30;;;1.90;;
29500;SDS011;16450;50.288;10.966;2022-08-19T15:34:57;3.88;;;2.67;;
29500;SDS011;16450;50.288;10.966;2022-08-19T15:37:58;3.53;;;2.15;;
29500;SDS011;16450;50.288;10.966;2022-08-19T15:40:59;2.95;;;2.08;;
29500;SDS011;16450;50.288;10.966;2022-08-19T15:44:20;5.20;;;1.90;;
29500;SDS011;16450;50.288;10.966;2022-08-19T15:47:21;2.65;;;1.80;;
29500;SDS011;16450;50.288;10.966;2022-08-19T15:50:22;1.98;;;1.77;;
29500;SDS011;16450;50.288;10.966;2022-08-19T15:53:23;2.35;;;1.60;;
29500;SDS011;16450;50.288;10.966;2022-08-19T15:56:25;3.20;;;1.92;;
29500;SDS011;16450;50.288;10.966;2022-08-19T15:59:46;2.10;;;1.90;;
29500;SDS011;16450;50.288;10.966;2022-08-19T16:03:06;2.75;;;1.70;;
29500;SDS011;16450;50.288;10.966;2022-08-19T16:06:29;1.75;;;1.50;;
29500;SDS011;16450;50.288;10.966;2022-08-19T16:09:30;2.08;;;1.80;;
29500;SDS011;16450;50.288;10.966;2022-08-19T16:12:33;2.45;;;1.95;;
29500;SDS011;16450;50.288;10.966;2022-08-19T16:15:34;1.70;;;1.60;;
29500;SDS011;16450;50.288;10.966;2022-08-19T16:18:35;2.38;;;1.67;;
29500;SDS011;16450;50.288;10.966;2022-08-19T16:21:37;1.90;;;1.80;;
29500;SDS011;16450;50.288;10.966;2022-08-19T16:24:39;3.88;;;1.83;;
29500;SDS011;16450;50.288;10.966;2022-08-19T16:27:39;2.00;;;1.70;;
29500;SDS011;16450;50.288;10.966;2022-08-19T16:30:40;2.00;;;1.75;;
29500;SDS011;16450;50.288;10.966;2022-08-19T16:33:42;2.33;;;1.70;;
29500;SDS011;16450;50.288;10.966;2022-08-19T16:36:42;2.20;;;1.80;;
29500;SDS011;16450;50.288;10.966;2022-08-19T16:39:43;2.67;;;2.03;;
29500;SDS011;16450;50.288;10.966;2022-08-19T16:42:44;1.98;;;1.80;;
29500;SDS011;16450;50.288;10.966;2022-08-19T16:45:44;1.92;;;1.55;;
29500;SDS011;16450;50.288;10.966;2022-08-19T16:48:47;2.92;;;2.03;;
29500;SDS011;16450;50.288;10.966;2022-08-19T16:51:49;4.00;;;2.08;;
29500;SDS011;16450;50.288;10.966;2022-08-19T16:54:50;3.83;;;1.83;;
29500;SDS011;16450;50.288;10.966;2022-08-19T16:57:51;2.30;;;1.73;;
29500;SDS011;16450;50.288;10.966;2022-08-19T17:00:52;2.33;;;1.83;;
29500;SDS011;16450;50.288;10.966;2022-08-19T17:03:53;9.70;;;1.92;;
29500;SDS011;16450;50.288;10.966;2022-08-19T17:06:55;2.13;;;1.92;;
29500;SDS011;16450;50.288;10.966;2022-08-19T17:09:55;4.78;;;1.88;;
29500;SDS011;16450;50.288;10.966;2022-08-19T17:12:56;3.50;;;1.80;;
29500;SDS011;16450;50.288;10.966;2022-08-19T17:15:57;3.40;;;1.88;;
29500;SDS011;16450;50.288;10.966;2022-08-19T17:18:59;3.42;;;1.77;;
29500;SDS011;16450;50.288;10.966;2022-08-19T17:22:01;2.20;;;1.77;;
29500;SDS011;16450;50.288;10.966;2022-08-19T17:25:02;3.13;;;1.70;;
29500;SDS011;16450;50.288;10.966;2022-08-19T17:28:11;1.88;;;1.75;;
29500;SDS011;16450;50.288;10.966;2022-08-19T17:31:17;3.17;;;1.75;;
29500;SDS011;16450;50.288;10.966;2022-08-19T17:34:20;5.60;;;1.70;;
29500;SDS011;16450;50.288;10.966;2022-08-19T17:37:20;2.95;;;2.15;;
29500;SDS011;16450;50.288;10.966;2022-08-19T17:40:21;2.05;;;1.85;;
29500;SDS011;16450;50.288;10.966;2022-08-19T17:43:21;2.03;;;1.70;;
29500;SDS011;16450;50.288;10.966;2022-08-19T17:46:22;2.47;;;2.10;;
29500;SDS011;16450;50.288;10.966;2022-08-19T17:49:23;3.03;;;2.03;;
29500;SDS011;16450;50.288;10.966;2022-08-19T17:52:23;2.03;;;1.88;;
29500;SDS011;16450;50.288;10.966;2022-08-19T17:55:24;2.10;;;1.90;;